Time;durP1;ratioP1;P1;durP2;ratioP2;P2;SDS_P1;SDS_P2;PMS_P1;PMS_P2;Temp;Humidity;BMP_temperature;BMP_pressure;BME280_temperature;BME280_humidity;BME280_pressure;Samples;Min_cycle;Max_cycle;Signal;HPM_P1;HPM_P2
2023/10/29 00:01:06;;;;;;;2.00;1.65;;;;;;;;;;5110733;28;20039;-86
2023/10/29 00:03:32;;;;;;;1.80;1.55;;;;;;;;;;5095992;28;20452;-86
2023/10/29 00:05:58;;;;;;;1.83;1.55;;;;;;;;;;5112368;28;20059;-86
2023/10/29 00:08:25;;;;;;;2.65;1.90;;;;;;;;;;5094735;28;20607;-86
2023/10/29 00:10:51;;;;;;;2.83;1.73;;;;;;;;;;5111746;28;20047;-86
2023/10/29 00:13:17;;;;;;;1.85;1.30;;;;;;;;;;5107809;28;20426;-86
2023/10/29 00:15:43;;;;;;;3.22;1.80;;;;;;;;;;5111271;28;20035;-85
2023/10/29 00:18:12;;;;;;;2.67;1.48;;;;;;;;;;5111525;28;20118;-84
2023/10/29 00:20:38;;;;;;;2.10;1.70;;;;;;;;;;5112526;28;20551;-84
2023/10/29 00:23:04;;;;;;;1.85;1.40;;;;;;;;;;5107022;28;20042;-85
2023/10/29 00:25:30;;;;;;;1.83;1.60;;;;;;;;;;5095399;28;20513;-85
2023/10/29 00:27:56;;;;;;;2.33;1.67;;;;;;;;;;5112204;28;20066;-85
2023/10/29 00:30:22;;;;;;;2.00;1.67;;;;;;;;;;5111271;28;20043;-85
2023/10/29 00:32:48;;;;;;;1.77;1.48;;;;;;;;;;5112348;28;20039;-85
2023/10/29 00:35:14;;;;;;;2.53;1.63;;;;;;;;;;5094423;28;20040;-85
2023/10/29 00:37:40;;;;;;;2.30;1.80;;;;;;;;;;5093925;28;20039;-86
2023/10/29 00:40:07;;;;;;;3.33;1.80;;;;;;;;;;5111017;28;20510;-86
2023/10/29 00:42:34;;;;;;;3.58;1.58;;;;;;;;;;5110942;28;20035;-86
2023/10/29 00:45:00;;;;;;;2.58;1.48;;;;;;;;;;5094585;28;20035;-86
2023/10/29 00:47:26;;;;;;;1.50;1.40;;;;;;;;;;5112335;28;20172;-86
2023/10/29 00:49:52;;;;;;;1.95;1.77;;;;;;;;;;5110784;28;20040;-86
2023/10/29 00:52:19;;;;;;;2.20;1.73;;;;;;;;;;5106730;28;20453;-86
2023/10/29 00:54:45;;;;;;;1.95;1.23;;;;;;;;;;5093060;28;20032;-86
2023/10/29 00:57:11;;;;;;;1.73;1.27;;;;;;;;;;5093698;28;20055;-86
2023/10/29 00:59:37;;;;;;;1.42;1.33;;;;;;;;;;5094529;28;20520;-87
2023/10/29 01:02:04;;;;;;;1.25;1.10;;;;;;;;;;5109949;28;20127;-87
2023/10/29 01:04:30;;;;;;;1.25;1.15;;;;;;;;;;5106378;28;20036;-86
2023/10/29 01:06:56;;;;;;;1.55;1.40;;;;;;;;;;5106589;28;20082;-86
2023/10/29 01:09:22;;;;;;;2.92;1.30;;;;;;;;;;5110613;28;20039;-87
2023/10/29 01:11:48;;;;;;;1.75;1.25;;;;;;;;;;5110905;28;20042;-86
2023/10/29 01:14:14;;;;;;;2.47;1.50;;;;;;;;;;5109347;28;20047;-86
2023/10/29 01:16:40;;;;;;;2.10;1.30;;;;;;;;;;5110956;28;20046;-86
2023/10/29 01:19:06;;;;;;;1.23;1.13;;;;;;;;;;5111362;28;20047;-86
2023/10/29 01:21:32;;;;;;;1.42;1.33;;;;;;;;;;5092287;28;20042;-86
2023/10/29 01:23:59;;;;;;;3.22;1.33;;;;;;;;;;5093828;28;20036;-86
2023/10/29 01:26:25;;;;;;;1.50;1.10;;;;;;;;;;5110989;28;20036;-86
2023/10/29 01:28:51;;;;;;;2.40;1.30;;;;;;;;;;5092561;28;20509;-86
2023/10/29 01:31:17;;;;;;;1.85;1.40;;;;;;;;;;5093547;28;20040;-86
2023/10/29 01:33:43;;;;;;;1.75;1.52;;;;;;;;;;5110798;28;20421;-86
2023/10/29 01:36:09;;;;;;;1.95;1.33;;;;;;;;;;5109816;28;20043;-86
2023/10/29 01:38:35;;;;;;;1.73;1.63;;;;;;;;;;5111373;28;20043;-86
2023/10/29 01:41:01;;;;;;;3.25;1.55;;;;;;;;;;5102183;28;20093;-86
2023/10/29 01:43:27;;;;;;;2.15;1.50;;;;;;;;;;5111241;28;20035;-86
2023/10/29 01:45:53;;;;;;;1.83;1.55;;;;;;;;;;5110634;28;20039;-86
2023/10/29 01:48:21;;;;;;;1.42;1.25;;;;;;;;;;5093494;28;20082;-86
2023/10/29 01:50:50;;;;;;;1.45;1.05;;;;;;;;;;5107762;28;20039;-86
2023/10/29 01:53:16;;;;;;;1.85;1.25;;;;;;;;;;5110189;28;20099;-86
2023/10/29 01:55:42;;;;;;;1.50;1.00;;;;;;;;;;5110108;28;20039;-86
2023/10/29 01:58:08;;;;;;;1.80;1.38;;;;;;;;;;5092556;28;20055;-86
2023/10/29 02:00:34;;;;;;;1.92;1.55;;;;;;;;;;5108020;28;20509;-86
2023/10/29 02:03:00;;;;;;;1.42;1.33;;;;;;;;;;5093543;28;20047;-86
2023/10/29 02:05:26;;;;;;;1.50;1.30;;;;;;;;;;5108869;28;20028;-86
2023/10/29 02:07:52;;;;;;;3.03;1.20;;;;;;;;;;5093161;28;20111;-86
2023/10/29 02:10:18;;;;;;;3.33;2.45;;;;;;;;;;5111177;28;20035;-86
2023/10/29 02:12:44;;;;;;;1.42;1.25;;;;;;;;;;5098007;28;20046;-86
2023/10/29 02:15:10;;;;;;;2.90;1.00;;;;;;;;;;5114023;28;20482;-86
2023/10/29 02:17:36;;;;;;;1.45;1.05;;;;;;;;;;5097770;28;20478;-86
2023/10/29 02:20:02;;;;;;;1.30;1.20;;;;;;;;;;5080774;28;20032;-86
2023/10/29 02:22:28;;;;;;;1.80;1.02;;;;;;;;;;5111063;28;20047;-86
2023/10/29 02:24:54;;;;;;;1.55;1.10;;;;;;;;;;5113304;28;20040;-86
2023/10/29 02:27:20;;;;;;;1.15;0.85;;;;;;;;;;5114478;28;20816;-86
2023/10/29 02:29:47;;;;;;;1.77;0.90;;;;;;;;;;5113353;28;20036;-85
2023/10/29 02:32:13;;;;;;;1.08;0.90;;;;;;;;;;5115139;28;20043;-85
2023/10/29 02:34:39;;;;;;;2.45;1.00;;;;;;;;;;5114388;28;20032;-86
2023/10/29 02:37:05;;;;;;;1.55;1.00;;;;;;;;;;5098006;28;20080;-86
2023/10/29 02:39:31;;;;;;;1.58;0.95;;;;;;;;;;5113967;28;20040;-86
2023/10/29 02:41:57;;;;;;;2.72;1.08;;;;;;;;;;5113837;28;20036;-86
2023/10/29 02:44:23;;;;;;;1.92;0.90;;;;;;;;;;5114186;28;20047;-85
2023/10/29 02:46:49;;;;;;;1.92;1.00;;;;;;;;;;5097613;28;20079;-86
2023/10/29 02:49:15;;;;;;;2.08;0.95;;;;;;;;;;5112810;28;20043;-86
2023/10/29 02:51:41;;;;;;;1.27;0.90;;;;;;;;;;5114602;28;20106;-86
2023/10/29 02:54:07;;;;;;;1.33;0.88;;;;;;;;;;5109493;28;20414;-86
2023/10/29 02:56:35;;;;;;;1.90;1.10;;;;;;;;;;5096605;28;20066;-86
2023/10/29 02:59:02;;;;;;;1.77;0.70;;;;;;;;;;5112651;28;20045;-85
2023/10/29 03:01:28;;;;;;;1.05;0.90;;;;;;;;;;5113307;28;20035;-86
2023/10/29 03:03:54;;;;;;;2.17;0.90;;;;;;;;;;5113402;28;20038;-86
2023/10/29 03:06:20;;;;;;;4.03;1.10;;;;;;;;;;5112065;28;20035;-86
2023/10/29 03:08:46;;;;;;;1.42;0.75;;;;;;;;;;5111222;28;20063;-86
2023/10/29 03:11:12;;;;;;;1.65;0.90;;;;;;;;;;5113487;28;20050;-86
2023/10/29 03:13:38;;;;;;;2.08;0.85;;;;;;;;;;5114757;28;20047;-86
2023/10/29 03:16:06;;;;;;;2.13;0.80;;;;;;;;;;5109259;28;20036;-85
2023/10/29 03:18:32;;;;;;;1.27;0.68;;;;;;;;;;5097114;28;20398;-86
2023/10/29 03:20:58;;;;;;;1.95;1.10;;;;;;;;;;5110930;28;20047;-86
2023/10/29 03:23:24;;;;;;;0.77;0.52;;;;;;;;;;5112508;28;20032;-86
2023/10/29 03:25:51;;;;;;;2.30;0.73;;;;;;;;;;5114118;28;20035;-86
2023/10/29 03:28:17;;;;;;;1.90;0.98;;;;;;;;;;5113516;28;20046;-86
2023/10/29 03:30:43;;;;;;;1.90;0.90;;;;;;;;;;5096914;28;20436;-86
2023/10/29 03:33:09;;;;;;;0.90;0.80;;;;;;;;;;5095477;28;20040;-86
2023/10/29 03:35:35;;;;;;;1.50;0.80;;;;;;;;;;5111078;28;20416;-87
2023/10/29 03:38:01;;;;;;;1.63;0.98;;;;;;;;;;5109064;28;20051;-87
2023/10/29 03:40:27;;;;;;;0.80;0.70;;;;;;;;;;5095294;28;20040;-86
2023/10/29 03:42:53;;;;;;;2.05;1.20;;;;;;;;;;5113657;28;20042;-86
2023/10/29 03:45:20;;;;;;;1.00;0.70;;;;;;;;;;5114039;28;20122;-86
2023/10/29 03:47:46;;;;;;;0.77;0.75;;;;;;;;;;5096473;28;20038;-86
2023/10/29 03:50:12;;;;;;;2.17;0.82;;;;;;;;;;5112400;28;20122;-86
2023/10/29 03:52:38;;;;;;;3.20;0.82;;;;;;;;;;5111752;28;20024;-87
2023/10/29 03:55:04;;;;;;;1.08;0.68;;;;;;;;;;5109660;28;20441;-87
2023/10/29 03:57:30;;;;;;;3.20;0.77;;;;;;;;;;5108921;28;20088;-87
2023/10/29 03:59:56;;;;;;;1.55;0.65;;;;;;;;;;5112458;28;20514;-86
2023/10/29 04:02:22;;;;;;;2.85;0.80;;;;;;;;;;5096104;28;20043;-86
2023/10/29 04:04:48;;;;;;;2.83;0.80;;;;;;;;;;5112079;28;20028;-86
2023/10/29 04:07:14;;;;;;;0.82;0.82;;;;;;;;;;5112895;28;20044;-86
2023/10/29 04:09:40;;;;;;;1.38;0.93;;;;;;;;;;5095734;28;20043;-86
2023/10/29 04:12:06;;;;;;;3.47;1.23;;;;;;;;;;5095922;28;20052;-87
2023/10/29 04:14:32;;;;;;;3.20;1.00;;;;;;;;;;5109349;28;20458;-87
2023/10/29 04:16:58;;;;;;;3.03;0.93;;;;;;;;;;5111309;28;20075;-86
2023/10/29 04:19:24;;;;;;;1.42;0.80;;;;;;;;;;5112003;28;20044;-86
2023/10/29 04:21:50;;;;;;;2.20;0.93;;;;;;;;;;5112870;28;20040;-87
2023/10/29 04:24:16;;;;;;;2.45;0.85;;;;;;;;;;5095032;28;20031;-87
2023/10/29 04:26:43;;;;;;;0.70;0.70;;;;;;;;;;5095952;28;20070;-87
2023/10/29 04:29:09;;;;;;;0.60;0.50;;;;;;;;;;5111623;28;20044;-86
2023/10/29 04:31:35;;;;;;;3.50;0.90;;;;;;;;;;5106758;28;20074;-87
2023/10/29 04:34:01;;;;;;;1.65;0.70;;;;;;;;;;5109281;28;20497;-87
2023/10/29 04:36:27;;;;;;;1.30;0.80;;;;;;;;;;5112307;28;20067;-87
2023/10/29 04:38:53;;;;;;;2.53;0.70;;;;;;;;;;5094910;28;20383;-87
2023/10/29 04:41:19;;;;;;;2.03;0.90;;;;;;;;;;5094858;28;20052;-86
2023/10/29 04:43:45;;;;;;;0.63;0.50;;;;;;;;;;5107507;28;20036;-87
2023/10/29 04:46:12;;;;;;;1.95;0.60;;;;;;;;;;5110920;28;20070;-87
2023/10/29 04:48:39;;;;;;;0.70;0.52;;;;;;;;;;5111897;28;20486;-87
2023/10/29 04:51:08;;;;;;;0.55;0.30;;;;;;;;;;5111577;28;20405;-87
2023/10/29 04:53:37;;;;;;;0.52;0.52;;;;;;;;;;5112210;28;20039;-87
2023/10/29 04:56:04;;;;;;;3.25;0.75;;;;;;;;;;5108952;28;20453;-87
2023/10/29 04:58:33;;;;;;;0.55;0.43;;;;;;;;;;5109661;28;20490;-87
2023/10/29 05:00:59;;;;;;;2.58;0.73;;;;;;;;;;5106328;28;20115;-88
2023/10/29 05:03:27;;;;;;;2.33;0.60;;;;;;;;;;5110338;28;20110;-88
2023/10/29 05:05:53;;;;;;;0.50;0.50;;;;;;;;;;5108208;28;20120;-87
2023/10/29 05:08:19;;;;;;;2.38;0.60;;;;;;;;;;5110967;28;20039;-88
2023/10/29 05:10:46;;;;;;;1.27;0.50;;;;;;;;;;5111575;28;20035;-87
2023/10/29 05:13:13;;;;;;;2.55;0.50;;;;;;;;;;5110740;28;20142;-87
2023/10/29 05:15:39;;;;;;;0.88;0.30;;;;;;;;;;5109052;28;20036;-87
2023/10/29 05:18:05;;;;;;;0.77;0.40;;;;;;;;;;5110772;28;20056;-87
2023/10/29 05:20:31;;;;;;;1.42;0.40;;;;;;;;;;5110923;28;20089;-87
2023/10/29 05:22:57;;;;;;;0.90;0.40;;;;;;;;;;5094069;28;20401;-87
2023/10/29 05:25:23;;;;;;;2.42;0.70;;;;;;;;;;5111037;28;20040;-87
2023/10/29 05:27:53;;;;;;;0.50;0.30;;;;;;;;;;5093547;28;20114;-87
2023/10/29 05:30:20;;;;;;;1.45;0.60;;;;;;;;;;5104932;28;20096;-87
2023/10/29 05:32:45;;;;;;;0.45;0.45;;;;;;;;;;5109326;28;20042;-87
2023/10/29 05:35:12;;;;;;;1.25;0.75;;;;;;;;;;5110413;28;20036;-86
2023/10/29 05:37:38;;;;;;;2.00;0.40;;;;;;;;;;5093505;28;20035;-87
2023/10/29 05:40:07;;;;;;;1.17;0.60;;;;;;;;;;5092854;28;20036;-87
2023/10/29 05:42:33;;;;;;;0.95;0.40;;;;;;;;;;5095434;28;20542;-87
2023/10/29 05:44:59;;;;;;;1.08;0.60;;;;;;;;;;5106939;28;20138;-87
2023/10/29 05:47:25;;;;;;;0.93;0.60;;;;;;;;;;5096109;28;20126;-87
2023/10/29 05:49:51;;;;;;;1.95;0.68;;;;;;;;;;5112787;28;20038;-86
2023/10/29 05:52:17;;;;;;;0.57;0.50;;;;;;;;;;5110429;28;20040;-86
2023/10/29 05:54:43;;;;;;;1.23;0.40;;;;;;;;;;5093795;28;20409;-87
2023/10/29 05:57:10;;;;;;;0.55;0.40;;;;;;;;;;5106584;28;20052;-87
2023/10/29 05:59:36;;;;;;;0.70;0.65;;;;;;;;;;5092360;28;20143;-83
2023/10/29 06:02:02;;;;;;;0.73;0.30;;;;;;;;;;5108105;28;20122;-84
2023/10/29 06:04:28;;;;;;;0.57;0.40;;;;;;;;;;5113817;28;20486;-84
2023/10/29 06:06:55;;;;;;;1.38;0.40;;;;;;;;;;5113718;28;20032;-83
2023/10/29 06:09:21;;;;;;;0.45;0.22;;;;;;;;;;5113830;28;20063;-83
2023/10/29 06:11:47;;;;;;;1.15;0.43;;;;;;;;;;5110809;28;20130;-84
2023/10/29 06:14:13;;;;;;;2.05;0.50;;;;;;;;;;5112380;28;20517;-83
2023/10/29 06:16:39;;;;;;;0.93;0.30;;;;;;;;;;5111945;28;20118;-85
2023/10/29 06:19:05;;;;;;;0.77;0.40;;;;;;;;;;5108829;28;20035;-85
2023/10/29 06:21:31;;;;;;;2.05;0.57;;;;;;;;;;5091756;28;20414;-85
2023/10/29 06:23:57;;;;;;;0.82;0.50;;;;;;;;;;5107699;28;20339;-84
2023/10/29 06:26:23;;;;;;;1.85;0.40;;;;;;;;;;5108906;28;20036;-85
2023/10/29 06:28:49;;;;;;;1.02;0.40;;;;;;;;;;5105672;28;20047;-86
2023/10/29 06:31:15;;;;;;;1.20;0.50;;;;;;;;;;5091166;28;20521;-87
2023/10/29 06:33:42;;;;;;;0.40;0.30;;;;;;;;;;5108305;28;20126;-85
2023/10/29 06:36:08;;;;;;;2.35;0.82;;;;;;;;;;5110321;28;20093;-85
2023/10/29 06:38:35;;;;;;;0.50;0.40;;;;;;;;;;5110653;28;20048;-85
2023/10/29 06:41:02;;;;;;;1.38;0.50;;;;;;;;;;5111096;28;20044;-85
2023/10/29 06:43:28;;;;;;;0.65;0.47;;;;;;;;;;5107841;28;20119;-85
2023/10/29 06:45:54;;;;;;;1.30;0.30;;;;;;;;;;5108853;28;20075;-85
2023/10/29 06:48:20;;;;;;;1.00;0.47;;;;;;;;;;5110560;28;20036;-84
2023/10/29 06:50:46;;;;;;;0.52;0.32;;;;;;;;;;5111698;28;20043;-84
2023/10/29 06:53:12;;;;;;;1.75;0.60;;;;;;;;;;5109521;28;20490;-85
2023/10/29 06:55:40;;;;;;;1.60;0.40;;;;;;;;;;5110820;28;20039;-85
2023/10/29 06:58:06;;;;;;;2.30;0.60;;;;;;;;;;5114534;28;20144;-85
2023/10/29 07:00:32;;;;;;;0.68;0.30;;;;;;;;;;5114674;28;20075;-85
2023/10/29 07:02:59;;;;;;;1.98;0.95;;;;;;;;;;5095621;28;20039;-86
2023/10/29 07:05:25;;;;;;;0.90;0.43;;;;;;;;;;5096582;28;20112;-85
2023/10/29 07:07:51;;;;;;;1.20;0.43;;;;;;;;;;5112250;28;20031;-85
2023/10/29 07:10:18;;;;;;;1.10;0.45;;;;;;;;;;5111357;28;20168;-85
2023/10/29 07:12:44;;;;;;;1.17;0.50;;;;;;;;;;5113625;28;20579;-86
2023/10/29 07:15:10;;;;;;;1.20;0.40;;;;;;;;;;5112796;28;20055;-85
2023/10/29 07:17:36;;;;;;;1.35;0.45;;;;;;;;;;5108479;28;20046;-83
2023/10/29 07:20:04;;;;;;;1.25;0.50;;;;;;;;;;5107378;28;20044;-84
2023/10/29 07:22:30;;;;;;;0.35;0.25;;;;;;;;;;5109500;28;20458;-83
2023/10/29 07:24:57;;;;;;;2.00;0.32;;;;;;;;;;5102821;28;20127;-86
2023/10/29 07:27:23;;;;;;;1.02;0.20;;;;;;;;;;5103855;28;20119;-85
2023/10/29 07:29:49;;;;;;;1.15;0.52;;;;;;;;;;5091862;28;20379;-85
2023/10/29 07:32:15;;;;;;;0.28;0.13;;;;;;;;;;5112562;28;20047;-85
2023/10/29 07:34:41;;;;;;;2.65;0.50;;;;;;;;;;5107387;28;20092;-87
2023/10/29 07:37:07;;;;;;;1.55;0.40;;;;;;;;;;5113509;28;20032;-84
2023/10/29 07:39:33;;;;;;;3.03;0.60;;;;;;;;;;5114017;28;20112;-83
2023/10/29 07:42:01;;;;;;;1.85;0.20;;;;;;;;;;5111514;28;20498;-85
2023/10/29 07:44:27;;;;;;;1.77;0.47;;;;;;;;;;5112691;28;20118;-84
2023/10/29 07:46:53;;;;;;;1.05;0.40;;;;;;;;;;5112349;28;20049;-84
2023/10/29 07:49:19;;;;;;;0.95;0.20;;;;;;;;;;5114080;28;20100;-85
2023/10/29 07:51:45;;;;;;;3.88;1.00;;;;;;;;;;5112545;28;20032;-84
2023/10/29 07:54:12;;;;;;;4.03;0.73;;;;;;;;;;5107379;28;20044;-82
2023/10/29 07:56:38;;;;;;;2.10;0.50;;;;;;;;;;5109335;28;20067;-81
2023/10/29 07:59:04;;;;;;;0.82;0.30;;;;;;;;;;5112989;28;20052;-81
2023/10/29 08:01:30;;;;;;;1.80;0.55;;;;;;;;;;5114074;28;20040;-81
2023/10/29 08:03:57;;;;;;;0.52;0.30;;;;;;;;;;5113347;28;20061;-82
2023/10/29 08:06:23;;;;;;;1.88;0.50;;;;;;;;;;5115820;28;20383;-82
2023/10/29 08:08:49;;;;;;;1.50;0.50;;;;;;;;;;5109297;28;20057;-81
2023/10/29 08:11:21;;;;;;;3.17;0.50;;;;;;;;;;5114394;28;20047;-82
2023/10/29 08:13:48;;;;;;;3.92;0.90;;;;;;;;;;5109056;27;20043;-82
2023/10/29 08:16:14;;;;;;;0.90;0.40;;;;;;;;;;5114297;28;20375;-83
2023/10/29 08:18:40;;;;;;;2.28;0.95;;;;;;;;;;5113132;27;20398;-84
2023/10/29 08:21:07;;;;;;;2.67;0.60;;;;;;;;;;5113331;27;20050;-83
2023/10/29 08:23:33;;;;;;;2.10;0.65;;;;;;;;;;5113837;28;20432;-83
2023/10/29 08:25:59;;;;;;;1.25;0.40;;;;;;;;;;5117283;28;20392;-83
2023/10/29 08:28:27;;;;;;;1.48;0.57;;;;;;;;;;5116536;28;20031;-82
2023/10/29 08:30:53;;;;;;;2.63;0.28;;;;;;;;;;5098532;28;20453;-83
2023/10/29 08:33:19;;;;;;;0.95;0.35;;;;;;;;;;5108812;28;20102;-83
2023/10/29 08:35:45;;;;;;;0.82;0.40;;;;;;;;;;5110199;27;20042;-84
2023/10/29 08:38:11;;;;;;;3.30;0.40;;;;;;;;;;5112196;28;20050;-86
2023/10/29 08:40:37;;;;;;;1.67;0.30;;;;;;;;;;5110694;27;20122;-86
2023/10/29 08:43:07;;;;;;;3.33;0.55;;;;;;;;;;5096087;28;20036;-85
2023/10/29 08:45:34;;;;;;;3.17;0.50;;;;;;;;;;5111007;27;20095;-81
2023/10/29 08:48:00;;;;;;;0.77;0.40;;;;;;;;;;5111142;27;20039;-82
2023/10/29 08:50:28;;;;;;;0.52;0.30;;;;;;;;;;5113026;28;20032;-84
2023/10/29 08:52:54;;;;;;;1.65;0.50;;;;;;;;;;5114145;28;20039;-82
2023/10/29 08:55:20;;;;;;;1.85;0.52;;;;;;;;;;5118605;28;20036;-83
2023/10/29 08:57:46;;;;;;;1.05;0.30;;;;;;;;;;5117963;28;20055;-84
2023/10/29 09:00:13;;;;;;;0.63;0.63;;;;;;;;;;5116484;28;20054;-83
2023/10/29 09:02:39;;;;;;;1.73;0.50;;;;;;;;;;5120748;28;20035;-83
2023/10/29 09:05:06;;;;;;;0.43;0.30;;;;;;;;;;5109003;28;20151;-83
2023/10/29 09:07:35;;;;;;;2.33;0.22;;;;;;;;;;5108782;28;20039;-84
2023/10/29 09:10:02;;;;;;;6.32;1.00;;;;;;;;;;5115248;28;20448;-84
2023/10/29 09:12:28;;;;;;;1.02;0.63;;;;;;;;;;5117037;28;20039;-83
2023/10/29 09:14:54;;;;;;;1.25;0.52;;;;;;;;;;5119789;28;20490;-84
2023/10/29 09:17:20;;;;;;;2.55;0.52;;;;;;;;;;5120406;28;20046;-85
2023/10/29 09:19:46;;;;;;;1.35;0.60;;;;;;;;;;5119547;28;20182;-82
2023/10/29 09:22:12;;;;;;;1.00;0.45;;;;;;;;;;5118814;28;20451;-84
2023/10/29 09:24:38;;;;;;;1.70;0.57;;;;;;;;;;5116896;28;20050;-83
2023/10/29 09:27:04;;;;;;;3.42;0.77;;;;;;;;;;5117130;28;20417;-83
2023/10/29 09:29:32;;;;;;;3.20;0.70;;;;;;;;;;5117443;28;20027;-83
2023/10/29 09:31:58;;;;;;;2.95;0.60;;;;;;;;;;5116590;28;20046;-83
2023/10/29 09:34:24;;;;;;;2.55;0.50;;;;;;;;;;5115032;28;20031;-84
2023/10/29 09:36:50;;;;;;;3.30;0.82;;;;;;;;;;5111827;28;20053;-83
2023/10/29 09:39:17;;;;;;;1.25;0.52;;;;;;;;;;5112203;28;20039;-84
2023/10/29 09:41:44;;;;;;;2.95;0.50;;;;;;;;;;5115001;28;20379;-84
2023/10/29 09:44:14;;;;;;;3.53;0.80;;;;;;;;;;5114902;28;20043;-84
2023/10/29 09:46:40;;;;;;;2.95;0.80;;;;;;;;;;5115606;28;20104;-83
2023/10/29 09:49:06;;;;;;;2.10;0.60;;;;;;;;;;5111511;28;20039;-83
2023/10/29 09:51:33;;;;;;;2.83;1.33;;;;;;;;;;5114141;28;20042;-84
2023/10/29 09:53:59;;;;;;;2.78;0.70;;;;;;;;;;5113469;28;20534;-84
2023/10/29 09:56:26;;;;;;;1.25;0.55;;;;;;;;;;5111211;28;20055;-84
2023/10/29 09:58:52;;;;;;;2.53;1.15;;;;;;;;;;5116389;28;20082;-83
2023/10/29 10:01:18;;;;;;;3.67;0.60;;;;;;;;;;5116381;28;20044;-83
2023/10/29 10:03:45;;;;;;;6.25;1.10;;;;;;;;;;5115127;28;20114;-83
2023/10/29 10:06:14;;;;;;;2.35;0.60;;;;;;;;;;5113696;28;20507;-85
2023/10/29 10:08:39;;;;;;;2.28;0.90;;;;;;;;;;5114780;28;20035;-83
2023/10/29 10:11:19;;;;;;;3.53;0.88;;;;;;;;;;5113962;28;20042;-84
2023/10/29 10:13:45;;;;;;;2.10;0.63;;;;;;;;;;5115638;28;20040;-83
2023/10/29 10:16:12;;;;;;;3.70;0.73;;;;;;;;;;5113237;28;20047;-84
2023/10/29 10:18:47;;;;;;;4.40;0.75;;;;;;;;;;5109586;28;20043;-84
2023/10/29 10:21:13;;;;;;;2.72;0.65;;;;;;;;;;5109940;28;20398;-83
2023/10/29 10:23:49;;;;;;;2.75;0.60;;;;;;;;;;5110866;28;20543;-85
2023/10/29 10:26:18;;;;;;;3.95;1.10;;;;;;;;;;5095658;28;20406;-84
2023/10/29 10:28:54;;;;;;;3.67;0.80;;;;;;;;;;5112392;28;20119;-84
2023/10/29 10:31:21;;;;;;;2.67;0.70;;;;;;;;;;5115118;28;20044;-84
2023/10/29 10:33:47;;;;;;;2.53;1.45;;;;;;;;;;5115636;28;20038;-84
2023/10/29 10:36:13;;;;;;;2.53;0.80;;;;;;;;;;5115406;28;20042;-84
2023/10/29 10:38:54;;;;;;;3.72;0.80;;;;;;;;;;5115945;27;20027;-84
2023/10/29 10:41:20;;;;;;;1.58;0.90;;;;;;;;;;5116266;28;20625;-84
2023/10/29 10:43:59;;;;;;;3.35;1.00;;;;;;;;;;5116582;28;20126;-83
2023/10/29 10:46:25;;;;;;;4.60;0.75;;;;;;;;;;5114911;28;20431;-84
2023/10/29 10:48:51;;;;;;;4.70;0.90;;;;;;;;;;5114350;28;20118;-85
2023/10/29 10:51:17;;;;;;;3.72;1.17;;;;;;;;;;5109599;28;20131;-84
2023/10/29 10:53:44;;;;;;;6.68;1.17;;;;;;;;;;5113950;27;20036;-85
2023/10/29 10:56:12;;;;;;;3.45;0.82;;;;;;;;;;5113098;28;20168;-85
2023/10/29 10:58:39;;;;;;;6.72;1.00;;;;;;;;;;5113127;28;20122;-85
2023/10/29 11:01:06;;;;;;;2.42;0.65;;;;;;;;;;5112868;28;20043;-85
2023/10/29 11:03:32;;;;;;;4.07;1.25;;;;;;;;;;5111473;28;20035;-85
2023/10/29 11:05:59;;;;;;;4.65;1.25;;;;;;;;;;5112737;28;20026;-85
2023/10/29 11:08:25;;;;;;;3.58;0.70;;;;;;;;;;5111618;28;20039;-85
2023/10/29 11:10:53;;;;;;;5.70;1.02;;;;;;;;;;5096773;28;20039;-86
2023/10/29 11:13:23;;;;;;;4.55;1.15;;;;;;;;;;5095497;28;20482;-85
2023/10/29 11:15:49;;;;;;;3.13;1.23;;;;;;;;;;5112612;28;20040;-85
2023/10/29 11:18:27;;;;;;;1.80;0.80;;;;;;;;;;5113433;28;20043;-84
2023/10/29 11:20:53;;;;;;;2.10;0.73;;;;;;;;;;5113049;28;20083;-86
2023/10/29 11:23:24;;;;;;;3.85;0.60;;;;;;;;;;5111002;28;20043;-84
2023/10/29 11:25:50;;;;;;;4.72;0.70;;;;;;;;;;5111101;28;20067;-85
2023/10/29 11:28:26;;;;;;;2.28;0.55;;;;;;;;;;5112880;28;20447;-85
2023/10/29 11:31:11;;;;;;;2.90;0.80;;;;;;;;;;5094620;28;20035;-85
2023/10/29 11:33:37;;;;;;;2.05;0.50;;;;;;;;;;5111624;28;20040;-85
2023/10/29 11:36:22;;;;;;;1.85;0.60;;;;;;;;;;5112687;28;20039;-84
2023/10/29 11:38:48;;;;;;;1.08;0.30;;;;;;;;;;5096614;28;20119;-84
2023/10/29 11:41:34;;;;;;;3.65;0.40;;;;;;;;;;5111579;28;20047;-86
2023/10/29 11:44:25;;;;;;;2.90;0.45;;;;;;;;;;5112258;28;20089;-85
2023/10/29 11:47:01;;;;;;;2.55;0.60;;;;;;;;;;5093764;28;20039;-85
2023/10/29 11:49:27;;;;;;;;;;;;;;;;;;5112201;28;20118;-85
2023/10/29 11:52:06;;;;;;;3.08;0.75;;;;;;;;;;5110644;27;20420;-82
2023/10/29 11:54:32;;;;;;;2.72;0.50;;;;;;;;;;5111671;28;20123;-85
2023/10/29 11:56:59;;;;;;;1.50;0.35;;;;;;;;;;5112214;28;20113;-84
2023/10/29 11:59:26;;;;;;;0.95;0.50;;;;;;;;;;5106774;28;20036;-84
2023/10/29 12:01:53;;;;;;;1.58;0.40;;;;;;;;;;5112565;28;20089;-86
2023/10/29 12:04:19;;;;;;;2.65;0.57;;;;;;;;;;5111837;28;20046;-85
2023/10/29 12:06:46;;;;;;;2.22;0.77;;;;;;;;;;5112319;28;20035;-85
2023/10/29 12:09:19;;;;;;;4.50;0.80;;;;;;;;;;5108776;28;20097;-85
2023/10/29 12:11:46;;;;;;;4.38;0.73;;;;;;;;;;5110830;28;20413;-86
2023/10/29 12:14:12;;;;;;;2.03;0.50;;;;;;;;;;5109232;28;20439;-86
2023/10/29 12:16:38;;;;;;;2.00;1.00;;;;;;;;;;5113286;28;20528;-86
2023/10/29 12:19:04;;;;;;;2.25;0.80;;;;;;;;;;5112432;28;20043;-86
2023/10/29 12:21:30;;;;;;;1.25;0.40;;;;;;;;;;5094742;28;20546;-86
2023/10/29 12:23:57;;;;;;;2.00;0.60;;;;;;;;;;5110832;28;20122;-86
2023/10/29 12:26:25;;;;;;;1.85;0.50;;;;;;;;;;5109444;28;20035;-86
2023/10/29 12:28:52;;;;;;;4.47;0.70;;;;;;;;;;5110884;28;20032;-87
2023/10/29 12:31:24;;;;;;;4.10;0.55;;;;;;;;;;5106707;27;20066;-87
2023/10/29 12:33:57;;;;;;;3.50;0.60;;;;;;;;;;5088537;28;20046;-86
2023/10/29 12:36:24;;;;;;;2.90;0.65;;;;;;;;;;5106910;28;20051;-86
2023/10/29 12:38:50;;;;;;;1.90;0.50;;;;;;;;;;5107303;28;20028;-88
2023/10/29 12:41:17;;;;;;;2.22;0.60;;;;;;;;;;5106013;28;20085;-85
2023/10/29 12:43:53;;;;;;;3.03;0.80;;;;;;;;;;5111070;28;20444;-85
2023/10/29 12:46:19;;;;;;;1.92;0.30;;;;;;;;;;5109335;28;20031;-85
2023/10/29 12:49:04;;;;;;;3.05;0.77;;;;;;;;;;5110808;28;20198;-85
2023/10/29 12:51:32;;;;;;;6.63;0.80;;;;;;;;;;5108987;28;20039;-85
2023/10/29 12:54:20;;;;;;;2.38;0.60;;;;;;;;;;5109798;28;20051;-85
2023/10/29 12:56:46;;;;;;;;;;;;;;;;;;5110755;28;20060;-87
2023/10/29 12:59:12;;;;;;;4.47;0.80;;;;;;;;;;5110872;28;19916;-85
2023/10/29 13:01:47;;;;;;;4.68;2.00;;;;;;;;;;5110066;28;20095;-86
2023/10/29 13:04:13;;;;;;;5.20;1.10;;;;;;;;;;5110639;28;20475;-86
2023/10/29 13:06:39;;;;;;;2.88;0.65;;;;;;;;;;5111599;28;20118;-86
2023/10/29 13:09:08;;;;;;;0.65;0.40;;;;;;;;;;5092389;28;20057;-86
2023/10/29 13:11:34;;;;;;;4.63;0.70;;;;;;;;;;5106900;28;20039;-87
2023/10/29 13:14:00;;;;;;;3.45;0.65;;;;;;;;;;5106291;28;20068;-87
2023/10/29 13:16:26;;;;;;;3.90;0.73;;;;;;;;;;5093752;28;20038;-87
2023/10/29 13:18:54;;;;;;;5.63;0.70;;;;;;;;;;5110390;28;20482;-87
2023/10/29 13:21:20;;;;;;;2.40;0.63;;;;;;;;;;5108624;28;20487;-87
2023/10/29 13:23:47;;;;;;;2.83;0.63;;;;;;;;;;5091698;28;20126;-87
2023/10/29 13:26:13;;;;;;;5.00;0.80;;;;;;;;;;5089411;28;20047;-87
2023/10/29 13:28:38;;;;;;;3.83;0.93;;;;;;;;;;5088981;28;20044;-89
2023/10/29 13:31:04;;;;;;;4.95;1.40;;;;;;;;;;5107311;28;20036;-85
2023/10/29 13:33:30;;;;;;;3.17;0.73;;;;;;;;;;5110349;28;20031;-86
2023/10/29 13:35:56;;;;;;;3.80;0.63;;;;;;;;;;5110087;28;20084;-86
2023/10/29 13:38:24;;;;;;;5.68;0.82;;;;;;;;;;5094433;28;20039;-86
2023/10/29 13:40:50;;;;;;;3.53;0.60;;;;;;;;;;5109417;28;20054;-86
2023/10/29 13:43:16;;;;;;;3.03;0.50;;;;;;;;;;5093915;28;20040;-85
2023/10/29 13:45:42;;;;;;;2.45;0.70;;;;;;;;;;5110697;28;20398;-86
2023/10/29 13:48:08;;;;;;;1.75;0.70;;;;;;;;;;5093276;28;20043;-86
2023/10/29 13:50:40;;;;;;;3.05;0.73;;;;;;;;;;5110434;28;20036;-86
2023/10/29 13:53:06;;;;;;;1.65;0.73;;;;;;;;;;5111096;28;20490;-86
2023/10/29 13:55:32;;;;;;;4.20;1.05;;;;;;;;;;5108186;28;20080;-86
2023/10/29 13:58:00;;;;;;;0.43;0.30;;;;;;;;;;5110853;28;20056;-85
2023/10/29 14:00:27;;;;;;;3.15;0.60;;;;;;;;;;5110599;28;20394;-85
2023/10/29 14:02:53;;;;;;;3.40;0.75;;;;;;;;;;5111065;28;20040;-86
2023/10/29 14:05:19;;;;;;;3.20;0.57;;;;;;;;;;5117745;28;20035;-85
2023/10/29 14:07:45;;;;;;;2.53;0.70;;;;;;;;;;5118203;28;20067;-86
2023/10/29 14:10:11;;;;;;;2.47;0.70;;;;;;;;;;5116970;28;20450;-86
2023/10/29 14:12:40;;;;;;;2.75;0.40;;;;;;;;;;5115808;27;20047;-85
2023/10/29 14:15:07;;;;;;;1.75;0.52;;;;;;;;;;5148368;27;20069;-85
2023/10/29 14:17:32;;;;;;;4.10;0.70;;;;;;;;;;5115611;28;20089;-86
2023/10/29 14:19:59;;;;;;;3.40;0.95;;;;;;;;;;5117346;28;20067;-86
2023/10/29 14:22:25;;;;;;;2.53;0.90;;;;;;;;;;5100815;28;20081;-86
2023/10/29 14:24:52;;;;;;;4.40;0.50;;;;;;;;;;5100712;28;20035;-85
2023/10/29 14:27:18;;;;;;;4.03;0.65;;;;;;;;;;5118042;28;20444;-85
2023/10/29 14:29:44;;;;;;;2.80;0.60;;;;;;;;;;5117882;28;20038;-85
2023/10/29 14:32:10;;;;;;;2.65;0.60;;;;;;;;;;5116606;28;20101;-86
2023/10/29 14:34:36;;;;;;;7.95;1.10;;;;;;;;;;5116008;28;20035;-85
2023/10/29 14:37:03;;;;;;;5.60;0.73;;;;;;;;;;5117608;28;20035;-85
2023/10/29 14:39:28;;;;;;;3.40;0.43;;;;;;;;;;5117294;28;20490;-85
2023/10/29 14:41:55;;;;;;;3.58;0.85;;;;;;;;;;5118379;28;20035;-85